Terminal Aerodrome Forecast
Issued by NWS

Home | Current Version | Previous Version | Text Only | Print | Product List | Glossary On
Versions: 1 2 3 4 5 6 7 8 9 10 11 12 13 14 15 16 17
000
FTUS41 KGYX 011729
TAFHIE
TAF
KHIE 011729Z 0118/0218 09004KT P6SM FEW030 BKN050
     FM020500 09003KT 4SM BR OVC015
     FM020700 07002KT 1/4SM FG OVC001
     FM021300 07002KT 4SM BR SCT007 OVC015
     FM021400 07002KT P6SM OVC025=

USA.gov is the U.S. government's official web portal to all federal, state and local government web resources and services.